createdAt,value
2019-06-10T00:00:36.555Z,5.30
2019-06-10T00:03:42.173Z,6.10
2019-06-10T00:06:46.112Z,6.60
2019-06-10T00:09:51.164Z,6.93
2019-06-10T00:12:55.486Z,9.10
2019-06-10T00:16:02.664Z,5.20
2019-06-10T00:19:06.781Z,7.23
2019-06-10T00:22:11.859Z,7.13
2019-06-10T00:25:15.860Z,5.80
2019-06-10T00:28:21.778Z,4.90
2019-06-10T00:31:25.276Z,6.60
2019-06-10T00:34:31.165Z,5.40
2019-06-10T00:37:35.131Z,10.33
2019-06-10T00:40:41.581Z,5.73
2019-06-10T00:43:45.160Z,8.57
2019-06-10T00:46:51.407Z,6.93
2019-06-10T00:49:54.981Z,5.60
2019-06-10T00:53:01.331Z,5.73
2019-06-10T00:56:06.763Z,8.10
2019-06-10T00:59:14.798Z,6.17
2019-06-10T01:02:18.057Z,5.37
2019-06-10T01:05:22.224Z,8.53
2019-06-10T01:08:26.140Z,6.30
2019-06-10T01:11:31.186Z,6.00
2019-06-10T01:14:34.975Z,6.40
2019-06-10T01:17:41.578Z,7.07
2019-06-10T01:20:45.313Z,6.57
2019-06-10T01:23:51.004Z,5.80
2019-06-10T01:26:55.048Z,6.73
2019-06-10T01:30:01.500Z,10.67
2019-06-10T01:33:06.287Z,10.73
2019-06-10T01:36:12.587Z,7.87
2019-06-10T01:39:16.863Z,8.80
2019-06-10T01:42:22.048Z,7.87
2019-06-10T01:45:25.976Z,7.20
2019-06-10T01:48:43.283Z,8.87
2019-06-10T01:51:36.080Z,9.00
2019-06-10T01:54:42.067Z,10.50
2019-06-10T01:57:45.931Z,8.60
2019-06-10T02:01:17.423Z,8.43
2019-06-10T02:04:22.216Z,6.90
2019-06-10T02:07:25.919Z,8.17
2019-06-10T02:10:31.073Z,11.00
2019-06-10T02:13:35.147Z,8.97
2019-06-10T02:16:41.303Z,7.53
2019-06-10T02:19:44.647Z,9.90
2019-06-10T02:22:48.497Z,8.40
2019-06-10T02:25:52.691Z,9.43
2019-06-10T02:28:56.875Z,9.53
2019-06-10T02:32:04.828Z,8.13
2019-06-10T02:35:13.600Z,9.23
2019-06-10T02:38:21.430Z,11.53
2019-06-10T02:41:28.245Z,10.23
2019-06-10T02:44:32.475Z,11.13
2019-06-10T02:47:37.007Z,9.60
2019-06-10T02:51:04.305Z,12.70
2019-06-10T02:54:08.562Z,9.63
2019-06-10T02:57:14.572Z,9.37
2019-06-10T03:00:26.722Z,11.53
2019-06-10T03:03:36.027Z,10.50
2019-06-10T03:06:38.516Z,8.70
2019-06-10T03:09:36.311Z,9.83
2019-06-10T03:12:42.385Z,9.60
2019-06-10T03:15:52.243Z,10.43
2019-06-10T03:18:56.370Z,9.07
2019-06-10T03:22:02.608Z,10.30
2019-06-10T03:25:06.264Z,10.43
2019-06-10T03:28:12.093Z,11.33
2019-06-10T03:31:18.833Z,10.03
2019-06-10T03:34:30.730Z,10.57
2019-06-10T03:37:28.250Z,11.13
2019-06-10T03:40:32.769Z,8.57
2019-06-10T03:43:37.078Z,10.73
2019-06-10T03:46:43.129Z,9.93
2019-06-10T03:49:52.656Z,11.27
2019-06-10T03:52:52.821Z,11.30
2019-06-10T03:55:57.029Z,9.83
2019-06-10T03:59:02.889Z,13.77
2019-06-10T04:02:06.935Z,9.53
2019-06-10T04:05:13.213Z,11.63
2019-06-10T04:08:17.429Z,10.87
2019-06-10T04:11:24.063Z,16.67
2019-06-10T04:14:28.495Z,11.07
2019-06-10T04:17:33.428Z,11.50
2019-06-10T04:20:37.377Z,8.03
2019-06-10T04:23:42.517Z,10.63
2019-06-10T04:26:47.236Z,11.70
2019-06-10T04:29:52.379Z,9.23
2019-06-10T04:32:56.573Z,9.70
2019-06-10T04:36:02.870Z,12.30
2019-06-10T04:39:07.177Z,14.67
2019-06-10T04:42:12.963Z,8.93
2019-06-10T04:45:18.557Z,9.97
2019-06-10T04:48:23.511Z,10.27
2019-06-10T04:51:29.714Z,8.00
2019-06-10T04:54:33.951Z,9.23
2019-06-10T04:57:37.848Z,8.17
2019-06-10T05:00:42.889Z,8.23
2019-06-10T05:03:47.050Z,8.80
2019-06-10T05:06:52.664Z,8.67
2019-06-10T05:09:57.059Z,8.00
2019-06-10T05:13:03.135Z,4.63
2019-06-10T05:16:07.177Z,4.50
2019-06-10T05:19:12.880Z,6.63
2019-06-10T05:22:17.631Z,8.07
2019-06-10T05:25:22.789Z,6.80
2019-06-10T05:28:28.739Z,5.57
2019-06-10T05:31:34.962Z,6.07
2019-06-10T05:34:38.818Z,5.10
2019-06-10T05:37:42.676Z,4.63
2019-06-10T05:40:46.944Z,5.70
2019-06-10T05:43:52.242Z,5.73
2019-06-10T05:46:56.858Z,5.33
2019-06-10T05:50:03.214Z,3.70
2019-06-10T05:53:06.704Z,3.63
2019-06-10T05:56:12.638Z,4.57
2019-06-10T05:59:16.145Z,4.43
2019-06-10T06:02:22.321Z,10.10
2019-06-10T06:05:26.340Z,4.77
2019-06-10T06:08:33.362Z,7.83
2019-06-10T06:11:37.683Z,4.97
2019-06-10T06:14:42.653Z,6.83
2019-06-10T06:17:46.794Z,6.40
2019-06-10T06:20:52.609Z,7.30
2019-06-10T06:23:56.880Z,7.23
2019-06-10T06:27:02.522Z,4.83
2019-06-10T06:30:13.780Z,3.53
2019-06-10T06:33:13.821Z,4.43
2019-06-10T06:36:17.864Z,5.53
2019-06-10T06:39:24.136Z,5.57
2019-06-10T06:42:27.452Z,5.67
2019-06-10T06:45:34.381Z,7.03
2019-06-10T06:48:40.311Z,5.47
2019-06-10T06:51:54.677Z,8.03
2019-06-10T06:54:52.897Z,8.00
2019-06-10T06:57:56.417Z,6.03
2019-06-10T07:01:09.896Z,7.13
2019-06-10T07:04:06.851Z,5.00
2019-06-10T07:07:13.182Z,8.67
2019-06-10T07:10:17.436Z,8.00
2019-06-10T07:13:22.313Z,6.33
2019-06-10T07:16:26.834Z,5.03
2019-06-10T07:19:33.993Z,5.53
2019-06-10T07:22:40.057Z,4.83
2019-06-10T07:25:47.237Z,5.67
2019-06-10T07:28:49.288Z,4.90
2019-06-10T07:31:53.926Z,6.77
2019-06-10T07:34:57.848Z,4.40
2019-06-10T07:38:02.980Z,5.70
2019-06-10T07:41:07.356Z,5.50
2019-06-10T07:44:12.457Z,5.90
2019-06-10T07:47:16.844Z,4.07
2019-06-10T07:50:22.677Z,4.60
2019-06-10T07:53:26.950Z,5.40
2019-06-10T07:56:36.811Z,5.03
2019-06-10T07:59:37.398Z,6.57
2019-06-10T08:02:44.208Z,5.10
2019-06-10T08:05:47.307Z,3.70
2019-06-10T08:08:53.162Z,5.37
2019-06-10T08:11:57.163Z,3.50
2019-06-10T08:15:02.794Z,4.00
2019-06-10T08:18:07.141Z,4.37
2019-06-10T08:21:12.222Z,5.27
2019-06-10T08:24:16.352Z,4.63
2019-06-10T08:27:22.714Z,3.23
2019-06-10T08:30:27.770Z,4.67
2019-06-10T08:33:33.115Z,3.50
2019-06-10T08:36:39.484Z,5.50
2019-06-10T08:40:23.487Z,3.07
2019-06-10T08:44:05.884Z,5.40
2019-06-10T08:47:41.146Z,3.60
2019-06-10T08:51:05.168Z,6.53
2019-06-10T08:54:55.488Z,4.30
2019-06-10T08:58:33.019Z,6.60
2019-06-10T09:05:26.841Z,3.87
2019-06-10T09:08:32.635Z,3.90
2019-06-10T09:11:36.680Z,6.70
2019-06-10T09:14:44.019Z,5.73
2019-06-10T09:17:49.582Z,5.40
2019-06-10T09:20:55.979Z,3.87
2019-06-10T09:23:59.967Z,3.87
2019-06-10T09:27:05.181Z,6.47
2019-06-10T09:30:09.801Z,5.37
2019-06-10T09:33:13.646Z,4.40
2019-06-10T09:36:17.503Z,6.17
2019-06-10T09:39:23.010Z,3.77
2019-06-10T09:42:27.728Z,4.57
2019-06-10T09:45:33.270Z,8.33
2019-06-10T09:48:37.400Z,3.57
2019-06-10T09:51:46.744Z,4.10
2019-06-10T09:54:50.857Z,6.63
2019-06-10T09:57:59.633Z,7.33
2019-06-10T10:00:59.279Z,4.97
2019-06-10T10:04:04.792Z,3.90
2019-06-10T10:07:09.181Z,3.93
2019-06-10T10:10:13.380Z,3.77
2019-06-10T10:13:17.963Z,3.83
2019-06-10T10:16:23.095Z,3.60
2019-06-10T10:19:27.577Z,4.17
2019-06-10T10:22:33.549Z,4.80
2019-06-10T10:25:38.187Z,5.07
2019-06-10T10:28:43.904Z,4.53
2019-06-10T10:31:50.752Z,5.57
2019-06-10T10:34:56.348Z,4.40
2019-06-10T10:37:59.929Z,3.53
2019-06-10T10:41:04.782Z,5.03
2019-06-10T10:44:09.226Z,7.53
2019-06-10T10:47:13.686Z,6.03
2019-06-10T10:50:22.399Z,5.73
2019-06-10T10:53:25.594Z,6.23
2019-06-10T10:56:29.455Z,7.90
2019-06-10T10:59:33.405Z,5.30
2019-06-10T11:02:37.300Z,5.50
2019-06-10T11:05:44.713Z,6.07
2019-06-10T11:08:48.325Z,4.33
2019-06-10T11:11:55.001Z,5.80
2019-06-10T11:15:01.890Z,5.10
2019-06-10T11:18:07.232Z,4.17
2019-06-10T11:21:13.221Z,4.63
2019-06-10T11:24:32.705Z,6.67
2019-06-10T11:27:22.823Z,5.60
2019-06-10T11:30:28.394Z,6.63
2019-06-10T11:33:33.651Z,5.00
2019-06-10T11:36:37.544Z,5.43
2019-06-10T11:39:41.477Z,4.47
2019-06-10T11:42:46.284Z,5.30
2019-06-10T11:45:55.127Z,4.93
2019-06-10T11:48:58.529Z,5.77
2019-06-10T11:52:03.207Z,8.07
2019-06-10T11:55:15.118Z,6.07
2019-06-10T11:58:14.228Z,3.90
2019-06-10T12:01:18.401Z,4.33
2019-06-10T12:04:23.899Z,4.03
2019-06-10T12:07:27.903Z,4.07
2019-06-10T12:10:33.018Z,5.27
2019-06-10T12:13:37.015Z,6.00
2019-06-10T12:19:46.811Z,4.83
2019-06-10T12:22:54.818Z,5.53
2019-06-10T12:25:59.290Z,4.33
2019-06-10T12:29:05.725Z,6.40
2019-06-10T12:32:09.088Z,4.30
2019-06-10T12:35:13.768Z,3.77
2019-06-10T12:38:17.914Z,7.07
2019-06-10T12:41:23.199Z,2.90
2019-06-10T12:44:27.419Z,3.47
2019-06-10T12:47:33.275Z,3.17
2019-06-10T12:50:37.332Z,7.57
2019-06-10T12:53:43.221Z,4.53
2019-06-10T12:56:47.322Z,4.83
2019-06-10T12:59:52.277Z,3.63
2019-06-10T13:02:57.379Z,5.37
2019-06-10T13:06:07.474Z,3.83
2019-06-10T13:09:12.899Z,3.60
2019-06-10T13:12:16.651Z,2.60
2019-06-10T13:15:22.154Z,3.63
2019-06-10T13:18:27.250Z,4.07
2019-06-10T13:21:32.991Z,4.57
2019-06-10T13:24:37.184Z,2.93
2019-06-10T13:27:42.835Z,4.17
2019-06-10T13:30:47.040Z,3.33
2019-06-10T13:33:52.928Z,2.40
2019-06-10T13:36:56.907Z,2.67
2019-06-10T13:40:02.269Z,3.17
2019-06-10T13:43:08.022Z,3.43
2019-06-10T13:46:12.320Z,4.50
2019-06-10T13:49:16.760Z,3.17
2019-06-10T13:52:23.143Z,3.73
2019-06-10T13:55:26.221Z,4.43
2019-06-10T13:58:30.232Z,3.17
2019-06-10T14:01:35.154Z,2.77
2019-06-10T14:04:39.163Z,2.97
2019-06-10T14:07:43.504Z,2.67
2019-06-10T14:10:48.396Z,3.97
2019-06-10T14:13:52.746Z,2.70
2019-06-10T14:16:57.046Z,3.10
2019-06-10T14:20:01.883Z,3.57
2019-06-10T14:23:06.319Z,4.00
2019-06-10T14:26:12.628Z,3.20
2019-06-10T14:29:16.991Z,5.73
2019-06-10T14:32:22.373Z,4.77
2019-06-10T14:35:26.981Z,6.33
2019-06-10T14:38:32.700Z,3.30
2019-06-10T14:41:37.059Z,4.00
2019-06-10T14:44:42.153Z,5.13
2019-06-10T14:47:46.413Z,2.80
2019-06-10T14:50:50.842Z,3.40
2019-06-10T14:53:54.854Z,3.63
2019-06-10T14:56:58.759Z,3.47
2019-06-10T15:00:03.226Z,3.77
2019-06-10T15:03:09.425Z,4.40
2019-06-10T15:06:13.533Z,3.77
2019-06-10T15:09:18.126Z,2.90
2019-06-10T15:12:22.899Z,2.33
2019-06-10T15:15:27.266Z,3.40
2019-06-10T15:18:33.017Z,4.87
2019-06-10T15:21:37.487Z,4.10
2019-06-10T15:24:42.747Z,4.90
2019-06-10T15:27:47.420Z,7.33
2019-06-10T15:30:52.467Z,5.10
2019-06-10T15:33:56.680Z,3.37
2019-06-10T15:37:02.822Z,5.43
2019-06-10T15:40:09.628Z,4.37
2019-06-10T15:43:13.913Z,3.87
2019-06-10T15:46:19.187Z,5.13
2019-06-10T15:49:26.069Z,3.73
2019-06-10T15:52:29.479Z,3.47
2019-06-10T15:55:55.553Z,4.47
2019-06-10T15:58:39.556Z,4.03
2019-06-10T16:01:44.208Z,4.10
2019-06-10T16:04:48.195Z,6.33
2019-06-10T16:07:53.069Z,4.33
2019-06-10T16:10:57.094Z,6.70
2019-06-10T16:14:02.873Z,4.43
2019-06-10T16:17:07.643Z,4.40
2019-06-10T16:20:13.160Z,3.67
2019-06-10T16:23:17.832Z,3.43
2019-06-10T16:26:25.289Z,4.30
2019-06-10T16:29:28.152Z,4.63
2019-06-10T16:32:32.958Z,4.53
2019-06-10T16:35:36.959Z,2.87
2019-06-10T16:38:42.309Z,4.23
2019-06-10T16:41:46.732Z,6.43
2019-06-10T16:44:52.798Z,4.23
2019-06-10T16:47:56.483Z,6.60
2019-06-10T16:51:02.993Z,4.17
2019-06-10T16:54:06.235Z,5.13
2019-06-10T16:57:12.185Z,4.93
2019-06-10T17:00:16.412Z,4.40
2019-06-10T17:03:24.665Z,4.70
2019-06-10T17:06:26.913Z,4.50
2019-06-10T17:09:32.823Z,3.87
2019-06-10T17:12:37.029Z,5.20
2019-06-10T17:15:42.381Z,7.37
2019-06-10T17:18:46.381Z,5.00
2019-06-10T17:21:52.765Z,5.37
2019-06-10T17:24:56.331Z,3.23
2019-06-10T17:28:15.126Z,5.77
2019-06-10T17:31:07.195Z,4.57
2019-06-10T17:34:13.169Z,4.87
2019-06-10T17:37:17.853Z,3.43
2019-06-10T17:40:23.417Z,6.13
2019-06-10T17:43:29.368Z,4.83
2019-06-10T17:46:35.287Z,6.00
2019-06-10T17:49:41.852Z,6.93
2019-06-10T17:52:45.617Z,6.43
2019-06-10T17:55:52.430Z,4.80
2019-06-10T17:58:58.068Z,4.67
2019-06-10T18:02:03.021Z,4.07
2019-06-10T18:05:08.390Z,6.67
2019-06-10T18:08:13.077Z,4.20
2019-06-10T18:11:16.996Z,8.20
2019-06-10T18:14:22.955Z,5.47
2019-06-10T18:17:28.701Z,4.70
2019-06-10T18:20:34.015Z,6.30
2019-06-10T18:23:38.875Z,5.13
2019-06-10T18:26:43.103Z,6.17
2019-06-10T18:29:47.158Z,7.23
2019-06-10T18:32:52.560Z,6.23
2019-06-10T18:35:56.591Z,5.53
2019-06-10T18:39:02.976Z,8.07
2019-06-10T18:42:06.973Z,6.33
2019-06-10T18:45:14.259Z,6.17
2019-06-10T18:48:18.336Z,6.00
2019-06-10T18:51:23.052Z,5.13
2019-06-10T18:54:27.769Z,4.57
2019-06-10T18:57:33.534Z,6.60
2019-06-10T19:00:53.478Z,6.63
2019-06-10T19:03:43.987Z,5.83
2019-06-10T19:06:48.983Z,3.70
2019-06-10T19:09:53.141Z,5.70
2019-06-10T19:12:57.501Z,4.37
2019-06-10T19:16:02.362Z,7.00
2019-06-10T19:19:08.276Z,6.07
2019-06-10T19:22:13.222Z,4.20
2019-06-10T19:25:18.316Z,6.67
2019-06-10T19:28:23.177Z,4.73
2019-06-10T19:31:27.011Z,8.27
2019-06-10T19:34:31.304Z,4.33
2019-06-10T19:37:37.387Z,8.13
2019-06-10T19:40:42.889Z,6.67
2019-06-10T19:43:47.757Z,8.13
2019-06-10T19:46:52.220Z,5.13
2019-06-10T19:49:56.124Z,5.67
2019-06-10T19:53:02.469Z,7.87
2019-06-10T19:56:05.709Z,7.87
2019-06-10T19:59:09.927Z,7.17
2019-06-10T20:02:13.920Z,7.93
2019-06-10T20:05:18.595Z,7.37
2019-06-10T20:08:22.798Z,5.20
2019-06-10T20:11:26.747Z,5.60
2019-06-10T20:14:32.248Z,9.17
2019-06-10T20:17:37.504Z,5.30
2019-06-10T20:20:45.635Z,7.17
2019-06-10T20:24:06.587Z,6.00
2019-06-10T20:27:10.807Z,4.90
2019-06-10T20:30:25.333Z,4.27
2019-06-10T20:33:36.995Z,5.73
2019-06-10T20:36:42.453Z,6.37
2019-06-10T20:39:47.727Z,8.20
2019-06-10T20:42:51.744Z,6.27
2019-06-10T20:45:58.220Z,7.37
2019-06-10T20:49:03.317Z,7.43
2019-06-10T20:52:12.223Z,6.87
2019-06-10T20:55:14.475Z,8.47
2019-06-10T20:58:19.004Z,6.37
2019-06-10T21:01:25.230Z,7.20
2019-06-10T21:04:29.146Z,8.07
2019-06-10T21:07:34.529Z,5.10
2019-06-10T21:10:39.863Z,8.33
2019-06-10T21:13:48.660Z,8.43
2019-06-10T21:16:53.310Z,8.83
2019-06-10T21:19:56.128Z,6.27
2019-06-10T21:23:03.083Z,5.30
2019-06-10T21:26:06.815Z,8.77
2019-06-10T21:29:12.761Z,10.37
2019-06-10T21:32:16.544Z,4.90
2019-06-10T21:35:20.706Z,5.87
2019-06-10T21:38:24.628Z,7.27
2019-06-10T21:41:28.459Z,6.47
2019-06-10T21:44:32.389Z,10.83
2019-06-10T21:47:36.687Z,8.70
2019-06-10T21:50:43.813Z,7.60
2019-06-10T21:53:46.606Z,7.90
2019-06-10T21:56:54.094Z,10.13
2019-06-10T21:59:56.431Z,6.47
2019-06-10T22:03:02.192Z,6.60
2019-06-10T22:06:06.510Z,9.67
2019-06-10T22:09:12.479Z,5.30
2019-06-10T22:12:16.878Z,6.77
2019-06-10T22:15:22.617Z,5.20
2019-06-10T22:18:27.657Z,5.97
2019-06-10T22:21:32.699Z,4.07
2019-06-10T22:24:36.940Z,5.50
2019-06-10T22:27:42.109Z,7.03
2019-06-10T22:30:47.153Z,11.93
2019-06-10T22:33:54.279Z,6.83
2019-06-10T22:36:57.757Z,6.77
2019-06-10T22:40:03.276Z,7.87
2019-06-10T22:43:07.862Z,5.73
2019-06-10T22:46:11.803Z,6.00
2019-06-10T22:49:15.983Z,9.43
2019-06-10T22:52:22.955Z,4.50
2019-06-10T22:55:26.328Z,8.30
2019-06-10T22:58:30.543Z,4.27
2019-06-10T23:01:38.262Z,6.43
2019-06-10T23:04:40.027Z,4.87
2019-06-10T23:07:43.908Z,3.57
2019-06-10T23:10:48.507Z,7.07
2019-06-10T23:13:53.810Z,5.67
2019-06-10T23:17:00.020Z,9.37
2019-06-10T23:20:04.307Z,6.47
2019-06-10T23:23:08.175Z,6.27
2019-06-10T23:26:13.058Z,7.40
2019-06-10T23:29:17.644Z,7.70
2019-06-10T23:32:22.244Z,7.23
2019-06-10T23:35:26.500Z,8.63
2019-06-10T23:38:32.758Z,5.53
2019-06-10T23:41:36.574Z,5.07
2019-06-10T23:44:40.494Z,8.97
2019-06-10T23:47:45.014Z,6.87
2019-06-10T23:50:49.235Z,8.03
2019-06-10T23:53:56.430Z,4.63
2019-06-10T23:57:01.436Z,4.53
